Terminal Aerodrome Forecast
Issued by NWS

Home | Current Version | Previous Version | Text Only | Print | Product List | Glossary On
Versions: 1 2 3 4 5 6 7 8 9 10 11 12 13 14 15 16 17 18 19 20 21 22 23 24 25 26 27 28 29
000
FTUS41 KRLX 202300
TAFCKB
TAF
KCKB 202340Z 2100/2124 00000KT P6SM -SHRA OVC060
      TEMPO 2102/2104 4SM -SHRA BR
     FM210700 00000KT P6SM BKN035
     FM210900 00000KT P6SM OVC025
     FM211500 27005KT P6SM -SHRA OVC025
     FM211700 28005KT P6SM -SHRA OVC035=

USA.gov is the U.S. government's official web portal to all federal, state and local government web resources and services.